createdAt,value
2022-08-01T00:03:26.064Z,60.19
2022-08-01T00:05:52.988Z,60.16
2022-08-01T00:08:20.059Z,60.18
2022-08-01T00:10:46.946Z,60.37
2022-08-01T00:13:14.318Z,60.54
2022-08-01T00:15:41.258Z,60.40
2022-08-01T00:18:20.875Z,60.72
2022-08-01T00:20:48.015Z,60.79
2022-08-01T00:23:15.037Z,60.31
2022-08-01T00:25:41.875Z,60.47
2022-08-01T00:28:12.217Z,60.91
2022-08-01T00:30:41.383Z,61.45
2022-08-01T00:33:08.328Z,61.53
2022-08-01T00:35:35.284Z,61.18
2022-08-01T00:38:02.147Z,61.22
2022-08-01T00:40:29.164Z,61.67
2022-08-01T00:42:55.954Z,61.81
2022-08-01T00:45:22.888Z,61.69
2022-08-01T00:47:55.155Z,61.81
2022-08-01T00:50:22.478Z,61.23
2022-08-01T00:52:52.330Z,61.35
2022-08-01T00:55:20.084Z,60.98
2022-08-01T00:58:04.927Z,61.74
2022-08-01T01:00:52.156Z,62.61
2022-08-01T01:03:23.589Z,62.76
2022-08-01T01:06:34.568Z,62.99
2022-08-01T01:09:16.996Z,62.28
2022-08-01T01:12:05.554Z,63.16
2022-08-01T01:14:47.524Z,63.79
2022-08-01T01:17:31.419Z,63.93
2022-08-01T01:20:07.254Z,64.15
2022-08-01T01:22:59.639Z,64.14
2022-08-01T01:25:38.703Z,64.69
2022-08-01T01:28:22.103Z,65.46
2022-08-01T01:30:54.051Z,65.54
2022-08-01T01:33:24.589Z,65.35
2022-08-01T01:35:59.019Z,65.67
2022-08-01T01:38:29.375Z,65.49
2022-08-01T01:40:58.446Z,65.32
2022-08-01T01:43:28.766Z,65.97
2022-08-01T01:46:01.501Z,66.05
2022-08-01T01:48:30.041Z,66.09
2022-08-01T01:50:58.727Z,66.54
2022-08-01T01:53:28.179Z,66.79
2022-08-01T01:55:59.056Z,66.66
2022-08-01T01:58:28.461Z,66.42
2022-08-01T02:00:57.697Z,67.45
2022-08-01T02:03:27.746Z,68.33
2022-08-01T02:05:56.145Z,68.72
2022-08-01T02:08:24.729Z,69.11
2022-08-01T02:11:26.696Z,69.04
2022-08-01T02:14:03.876Z,68.17
2022-08-01T02:16:37.029Z,68.71
2022-08-01T02:19:04.271Z,68.59
2022-08-01T02:21:38.772Z,68.78
2022-08-01T02:24:18.064Z,68.79
2022-08-01T02:26:51.722Z,68.72
2022-08-01T02:29:25.245Z,68.64
2022-08-01T02:31:55.865Z,69.12
2022-08-01T02:34:26.701Z,69.04
2022-08-01T02:36:55.818Z,70.04
2022-08-01T02:39:24.540Z,69.91
2022-08-01T02:41:58.512Z,69.97
2022-08-01T02:44:29.871Z,69.80
2022-08-01T02:47:05.912Z,70.26
2022-08-01T02:49:36.731Z,71.19
2022-08-01T02:52:08.483Z,71.59
2022-08-01T02:54:39.816Z,72.21
2022-08-01T02:57:08.555Z,72.32
2022-08-01T02:59:41.313Z,72.55
2022-08-01T03:02:10.970Z,73.04
2022-08-01T03:04:40.923Z,72.93
2022-08-01T03:07:10.435Z,73.21
2022-08-01T03:09:41.564Z,73.49
2022-08-01T03:12:14.873Z,73.26
2022-08-01T03:14:43.909Z,72.60
2022-08-01T03:17:12.632Z,72.21
2022-08-01T03:19:41.108Z,72.33
2022-08-01T03:22:12.418Z,71.48
2022-08-01T03:24:41.557Z,72.54
2022-08-01T03:27:10.292Z,72.01
2022-08-01T03:29:40.616Z,72.10
2022-08-01T03:32:08.780Z,71.68
2022-08-01T03:34:35.943Z,72.48
2022-08-01T03:37:54.287Z,73.55
2022-08-01T03:40:36.645Z,72.40
2022-08-01T03:43:06.758Z,72.13
2022-08-01T03:45:39.429Z,72.33
2022-08-01T03:48:14.423Z,72.49
2022-08-01T03:50:49.437Z,71.79
2022-08-01T03:53:22.489Z,72.05
2022-08-01T03:55:50.736Z,72.80
2022-08-01T03:58:21.764Z,73.20
2022-08-01T04:00:52.270Z,73.12
2022-08-01T04:03:19.681Z,73.36
2022-08-01T04:05:49.426Z,71.75
2022-08-01T04:08:16.174Z,71.34
2022-08-01T04:10:43.213Z,72.33
2022-08-01T04:13:09.967Z,73.09
2022-08-01T04:15:36.759Z,73.62
2022-08-01T04:18:03.626Z,73.98
2022-08-01T04:20:31.044Z,73.73
2022-08-01T04:22:57.823Z,74.47
2022-08-01T04:25:34.553Z,75.65
2022-08-01T04:28:05.248Z,75.83
2022-08-01T04:30:35.902Z,76.66
2022-08-01T04:33:07.741Z,76.18
2022-08-01T04:36:02.740Z,78.10
2022-08-01T04:38:30.771Z,78.59
2022-08-01T04:40:58.264Z,79.02
2022-08-01T04:43:24.915Z,76.85
2022-08-01T04:45:52.541Z,74.90
2022-08-01T04:48:22.692Z,74.94
2022-08-01T04:50:50.142Z,75.18
2022-08-01T04:53:18.493Z,75.45
2022-08-01T04:55:49.805Z,75.98
2022-08-01T04:58:18.654Z,76.28
2022-08-01T05:00:46.018Z,76.18
2022-08-01T05:03:12.683Z,76.07
2022-08-01T05:05:39.361Z,75.76
2022-08-01T05:08:07.299Z,75.79
2022-08-01T05:10:35.084Z,76.22
2022-08-01T05:13:01.852Z,75.76
2022-08-01T05:15:28.470Z,75.92
2022-08-01T05:17:55.557Z,75.93
2022-08-01T05:20:22.365Z,76.14
2022-08-01T05:22:49.095Z,75.62
2022-08-01T05:25:19.949Z,75.64
2022-08-01T05:27:50.943Z,75.46
2022-08-01T05:30:18.869Z,75.74
2022-08-01T05:32:45.700Z,75.89
2022-08-01T05:35:12.703Z,75.58
2022-08-01T05:37:39.774Z,76.08
2022-08-01T05:40:07.413Z,74.96
2022-08-01T05:42:34.397Z,75.30
2022-08-01T05:45:01.031Z,74.78
2022-08-01T05:47:27.593Z,74.71
2022-08-01T05:49:54.191Z,74.57
2022-08-01T05:52:20.724Z,74.92
2022-08-01T05:54:50.175Z,77.91
2022-08-01T05:57:19.868Z,81.15
2022-08-01T05:59:47.377Z,83.19
2022-08-01T06:02:14.191Z,82.44
2022-08-01T06:04:40.871Z,82.81
2022-08-01T06:07:07.408Z,85.79
2022-08-01T06:09:34.090Z,83.83
2022-08-01T06:12:00.636Z,82.05
2022-08-01T06:14:27.162Z,83.74
2022-08-01T06:16:53.711Z,83.65
2022-08-01T06:19:20.249Z,84.65
2022-08-01T06:21:47.407Z,84.60
2022-08-01T06:24:13.979Z,84.02
2022-08-01T06:26:40.545Z,83.01
2022-08-01T06:29:07.130Z,82.61
2022-08-01T06:31:36.531Z,83.07
2022-08-01T06:34:03.117Z,81.86
2022-08-01T06:36:29.677Z,82.17
2022-08-01T06:38:56.201Z,79.21
2022-08-01T06:41:22.751Z,78.95
2022-08-01T06:43:49.376Z,77.06
2022-08-01T06:46:15.996Z,76.25
2022-08-01T06:48:43.663Z,75.20
2022-08-01T06:51:10.314Z,73.33
2022-08-01T06:53:38.082Z,72.81
2022-08-01T06:56:06.009Z,71.96
2022-08-01T06:58:32.726Z,71.60
2022-08-01T07:00:59.548Z,69.62
2022-08-01T07:03:27.706Z,68.65
2022-08-01T07:06:13.827Z,66.93
2022-08-01T07:08:41.893Z,66.67
2022-08-01T07:11:08.946Z,65.05
2022-08-01T07:13:36.788Z,63.41
2022-08-01T07:16:10.781Z,62.04
2022-08-01T07:18:37.392Z,60.78
2022-08-01T07:21:04.902Z,60.61
2022-08-01T07:23:33.921Z,58.92
2022-08-01T07:26:04.763Z,57.07
2022-08-01T07:28:31.816Z,57.23
2022-08-01T07:30:58.412Z,56.45
2022-08-01T07:33:24.967Z,55.49
2022-08-01T07:35:51.702Z,54.06
2022-08-01T07:38:21.043Z,52.77
2022-08-01T07:40:50.481Z,51.61
2022-08-01T07:43:19.419Z,50.98
2022-08-01T07:45:46.642Z,49.97
2022-08-01T07:48:13.515Z,48.35
2022-08-01T07:50:40.075Z,46.94
2022-08-01T07:53:06.982Z,45.82
2022-08-01T07:55:33.674Z,46.32
2022-08-01T07:58:00.286Z,46.91
2022-08-01T08:00:36.125Z,46.21
2022-08-01T08:03:02.933Z,44.85
2022-08-01T08:05:58.405Z,44.75
2022-08-01T08:08:18.191Z,43.47
2022-08-01T08:10:45.150Z,42.56
2022-08-01T08:13:11.760Z,40.96
2022-08-01T08:15:38.679Z,40.85
2022-08-01T08:18:05.484Z,40.81
2022-08-01T08:20:32.105Z,40.54
2022-08-01T08:22:59.690Z,42.18
2022-08-01T08:25:26.969Z,41.45
2022-08-01T08:27:54.397Z,41.81
2022-08-01T08:30:21.863Z,42.04
2022-08-01T08:32:48.932Z,41.48
2022-08-01T08:35:20.089Z,40.97
2022-08-01T08:37:49.978Z,38.78
2022-08-01T08:40:19.115Z,37.79
2022-08-01T08:42:48.456Z,38.59
2022-08-01T08:45:15.156Z,36.98
2022-08-01T08:47:43.411Z,38.34
2022-08-01T08:50:10.620Z,38.12
2022-08-01T08:52:39.511Z,36.89
2022-08-01T08:55:06.865Z,37.41
2022-08-01T08:57:33.825Z,36.91
2022-08-01T09:00:01.095Z,36.34
2022-08-01T09:02:27.698Z,35.85
2022-08-01T09:04:54.756Z,35.12
2022-08-01T09:07:21.585Z,35.11
2022-08-01T09:09:51.693Z,35.66
2022-08-01T09:12:19.675Z,35.45
2022-08-01T09:14:48.402Z,35.47
2022-08-01T09:17:15.088Z,35.92
2022-08-01T09:19:50.351Z,35.13
2022-08-01T09:22:30.099Z,34.58
2022-08-01T09:25:06.604Z,33.40
2022-08-01T09:27:44.379Z,31.13
2022-08-01T09:30:19.139Z,33.62
2022-08-01T09:32:59.411Z,33.06
2022-08-01T09:35:31.109Z,32.35
2022-08-01T09:38:18.467Z,30.68
2022-08-01T09:40:58.250Z,30.40
2022-08-01T09:43:32.455Z,30.50
2022-08-01T09:46:00.968Z,28.83
2022-08-01T09:48:29.854Z,27.74
2022-08-01T09:51:03.914Z,28.34
2022-08-01T09:53:52.347Z,29.75
2022-08-01T09:56:22.069Z,29.41
2022-08-01T09:58:59.933Z,28.73
2022-08-01T10:01:36.697Z,30.35
2022-08-01T10:04:25.290Z,30.66
2022-08-01T10:06:55.466Z,31.24
2022-08-01T10:09:35.915Z,30.05
2022-08-01T10:12:09.000Z,28.78
2022-08-01T10:14:42.609Z,28.32
2022-08-01T10:17:19.855Z,27.86
2022-08-01T10:19:50.534Z,27.42
2022-08-01T10:22:24.652Z,25.62
2022-08-01T10:24:56.484Z,27.08
2022-08-01T10:27:39.550Z,25.72
2022-08-01T10:30:19.700Z,25.21
2022-08-01T10:32:55.645Z,25.18
2022-08-01T10:35:47.279Z,23.36
2022-08-01T10:38:13.443Z,23.83
2022-08-01T10:40:41.453Z,23.63
2022-08-01T10:43:10.160Z,23.32
2022-08-01T10:45:37.215Z,23.94
2022-08-01T10:48:20.898Z,22.85
2022-08-01T10:50:54.399Z,22.39
2022-08-01T10:53:24.004Z,23.51
2022-08-01T10:56:02.400Z,24.62
2022-08-01T10:58:42.688Z,24.58
2022-08-01T11:01:30.081Z,23.81
2022-08-01T11:04:16.494Z,23.71
2022-08-01T11:06:54.659Z,23.84
2022-08-01T11:09:42.590Z,23.76
2022-08-01T11:12:14.558Z,24.32
2022-08-01T11:14:59.817Z,24.43
2022-08-01T11:17:45.117Z,24.44
2022-08-01T11:20:15.951Z,23.38
2022-08-01T11:23:03.230Z,22.77
2022-08-01T11:26:06.723Z,22.03
2022-08-01T11:28:38.443Z,22.54
2022-08-01T11:31:11.387Z,21.90
2022-08-01T11:33:40.760Z,21.70
2022-08-01T11:36:36.859Z,21.74
2022-08-01T11:39:13.068Z,21.47
2022-08-01T11:41:41.807Z,20.98
2022-08-01T11:44:11.703Z,19.89
2022-08-01T11:47:02.404Z,21.94
2022-08-01T11:49:38.817Z,21.46
2022-08-01T11:52:31.447Z,21.55
2022-08-01T11:55:11.543Z,21.67
2022-08-01T11:57:41.487Z,21.79
2022-08-01T12:00:15.398Z,20.64
2022-08-01T12:02:46.140Z,21.22
2022-08-01T12:05:24.734Z,19.92
2022-08-01T12:07:52.798Z,20.05
2022-08-01T12:10:21.358Z,20.16
2022-08-01T12:12:52.978Z,19.95
2022-08-01T12:15:25.088Z,20.16
2022-08-01T12:17:59.571Z,19.86
2022-08-01T12:20:32.287Z,19.65
2022-08-01T12:23:01.307Z,20.76
2022-08-01T12:25:28.231Z,21.19
2022-08-01T12:27:56.864Z,21.47
2022-08-01T12:30:25.445Z,21.24
2022-08-01T12:32:53.603Z,19.77
2022-08-01T12:35:25.752Z,18.94
2022-08-01T12:37:56.518Z,19.85
2022-08-01T12:40:25.956Z,18.68
2022-08-01T12:42:55.582Z,18.39
2022-08-01T12:45:27.688Z,19.57
2022-08-01T12:47:55.198Z,19.87
2022-08-01T12:50:26.560Z,20.34
2022-08-01T12:53:16.943Z,21.19
2022-08-01T12:55:59.542Z,20.39
2022-08-01T12:58:34.451Z,19.93
2022-08-01T13:01:09.619Z,20.80
2022-08-01T13:03:36.561Z,19.83
2022-08-01T13:06:15.869Z,19.57
2022-08-01T13:08:42.823Z,19.53
2022-08-01T13:11:15.620Z,20.05
2022-08-01T13:13:50.451Z,19.86
2022-08-01T13:16:27.953Z,19.12
2022-08-01T13:19:05.841Z,19.44
2022-08-01T13:21:34.436Z,19.88
2022-08-01T13:24:24.890Z,20.13
2022-08-01T13:27:01.679Z,21.16
2022-08-01T13:29:39.031Z,20.31
2022-08-01T13:32:28.709Z,21.17
2022-08-01T13:35:05.850Z,20.28
2022-08-01T13:37:32.611Z,20.98
2022-08-01T13:39:59.280Z,19.65
2022-08-01T13:42:25.960Z,20.30
2022-08-01T13:44:52.576Z,19.57
2022-08-01T13:47:31.127Z,20.24
2022-08-01T13:50:01.586Z,19.33
2022-08-01T13:52:29.376Z,18.52
2022-08-01T13:54:56.039Z,17.15
2022-08-01T13:57:22.893Z,18.42
2022-08-01T13:59:49.753Z,18.25
2022-08-01T14:02:16.345Z,18.33
2022-08-01T14:04:43.272Z,18.44
2022-08-01T14:07:14.812Z,18.70
2022-08-01T14:09:57.827Z,18.88
2022-08-01T14:12:29.636Z,19.23
2022-08-01T14:14:56.264Z,18.89
2022-08-01T14:17:22.897Z,19.04
2022-08-01T14:19:49.895Z,18.68
2022-08-01T14:22:16.503Z,19.28
2022-08-01T14:24:43.250Z,20.67
2022-08-01T14:27:11.229Z,21.73
2022-08-01T14:30:02.868Z,20.59
2022-08-01T14:32:26.010Z,20.83
2022-08-01T14:34:55.973Z,21.28
2022-08-01T14:37:22.571Z,22.71
2022-08-01T14:39:56.235Z,23.68
2022-08-01T14:42:24.282Z,24.63
2022-08-01T14:44:51.701Z,25.59
2022-08-01T14:47:21.816Z,25.81
2022-08-01T14:49:52.231Z,25.96
2022-08-01T14:52:21.709Z,26.36
2022-08-01T14:54:48.672Z,26.69
2022-08-01T14:57:21.172Z,26.30
2022-08-01T14:59:48.118Z,26.73
2022-08-01T15:02:18.033Z,27.42
2022-08-01T15:04:48.608Z,27.05
2022-08-01T15:07:16.658Z,27.36
2022-08-01T15:09:43.965Z,26.48
2022-08-01T15:12:11.657Z,26.87
2022-08-01T15:14:53.618Z,27.49
2022-08-01T15:17:25.211Z,27.53
2022-08-01T15:19:54.085Z,27.60
2022-08-01T15:22:24.937Z,27.72
2022-08-01T15:24:57.474Z,27.83
2022-08-01T15:27:25.352Z,28.13
2022-08-01T15:29:55.295Z,27.69
2022-08-01T15:32:22.445Z,27.81
2022-08-01T15:34:52.303Z,28.61
2022-08-01T15:37:20.345Z,28.59
2022-08-01T15:39:47.092Z,28.52
2022-08-01T15:42:19.959Z,28.91
2022-08-01T15:44:51.905Z,28.62
2022-08-01T15:47:18.572Z,28.33
2022-08-01T15:49:45.683Z,28.65
2022-08-01T15:52:21.415Z,28.13
2022-08-01T15:54:49.538Z,28.27
2022-08-01T15:57:16.218Z,27.94
2022-08-01T15:59:42.835Z,28.10
2022-08-01T16:02:09.897Z,28.21
2022-08-01T16:04:38.810Z,29.11
2022-08-01T16:07:06.327Z,28.51
2022-08-01T16:09:33.023Z,28.20
2022-08-01T16:11:59.846Z,28.94
2022-08-01T16:14:26.441Z,28.10
2022-08-01T16:17:03.414Z,27.37
2022-08-01T16:19:30.026Z,27.41
2022-08-01T16:21:56.625Z,26.81
2022-08-01T16:24:23.769Z,28.21
2022-08-01T16:26:52.830Z,27.97
2022-08-01T16:29:21.121Z,27.84
2022-08-01T16:32:01.460Z,27.94
2022-08-01T16:34:35.133Z,27.29
2022-08-01T16:37:02.972Z,27.32
2022-08-01T16:39:34.016Z,27.65
2022-08-01T16:42:01.772Z,28.64
2022-08-01T16:44:33.865Z,28.51
2022-08-01T16:47:03.614Z,28.30
2022-08-01T16:49:32.016Z,27.98
2022-08-01T16:51:58.915Z,28.78
2022-08-01T16:54:26.428Z,28.32
2022-08-01T16:56:54.071Z,28.87
2022-08-01T16:59:23.584Z,28.57
2022-08-01T17:01:59.495Z,28.71
2022-08-01T17:04:34.779Z,29.20
2022-08-01T17:07:01.462Z,29.21
2022-08-01T17:09:28.089Z,29.64
2022-08-01T17:11:54.620Z,30.39
2022-08-01T17:14:21.490Z,30.72
2022-08-01T17:16:48.366Z,30.91
2022-08-01T17:19:15.072Z,31.85
2022-08-01T17:21:42.423Z,32.45
2022-08-01T17:24:09.759Z,31.84
2022-08-01T17:26:36.432Z,32.19
2022-08-01T17:29:05.229Z,31.75
2022-08-01T17:31:32.108Z,32.07
2022-08-01T17:33:58.770Z,32.21
2022-08-01T17:36:25.399Z,32.17
2022-08-01T17:38:52.041Z,32.54
2022-08-01T17:41:18.710Z,32.29
2022-08-01T17:43:45.400Z,32.71
2022-08-01T17:46:12.074Z,33.07
2022-08-01T17:48:38.751Z,33.40
2022-08-01T17:51:06.534Z,33.67
2022-08-01T17:53:33.725Z,34.11
2022-08-01T17:56:02.532Z,35.19
2022-08-01T17:58:48.871Z,34.73
2022-08-01T18:01:18.314Z,35.25
2022-08-01T18:03:45.921Z,35.57
2022-08-01T18:06:15.742Z,35.77
2022-08-01T18:08:42.997Z,35.63
2022-08-01T18:11:09.900Z,35.64
2022-08-01T18:13:40.605Z,35.69
2022-08-01T18:16:11.028Z,36.63
2022-08-01T18:18:38.767Z,36.71
2022-08-01T18:21:06.402Z,36.73
2022-08-01T18:23:34.067Z,36.54
2022-08-01T18:26:02.653Z,36.62
2022-08-01T18:28:37.938Z,36.97
2022-08-01T18:31:08.649Z,37.39
2022-08-01T18:33:36.235Z,37.46
2022-08-01T18:36:04.535Z,37.42
2022-08-01T18:38:35.244Z,37.84
2022-08-01T18:41:06.357Z,38.13
2022-08-01T18:43:33.390Z,38.27
2022-08-01T18:46:02.227Z,38.75
2022-08-01T18:48:30.177Z,39.22
2022-08-01T18:50:56.993Z,39.53
2022-08-01T18:53:26.569Z,39.49
2022-08-01T18:55:53.281Z,40.11
2022-08-01T18:58:20.650Z,40.08
2022-08-01T19:00:47.513Z,40.18
2022-08-01T19:03:15.428Z,41.03
2022-08-01T19:05:42.274Z,40.84
2022-08-01T19:08:09.482Z,41.51
2022-08-01T19:10:36.422Z,41.80
2022-08-01T19:13:03.612Z,41.89
2022-08-01T19:15:30.415Z,42.91
2022-08-01T19:17:57.009Z,42.39
2022-08-01T19:20:23.591Z,42.46
2022-08-01T19:22:50.487Z,43.25
2022-08-01T19:25:17.118Z,43.13
2022-08-01T19:27:47.703Z,43.96
2022-08-01T19:30:15.240Z,44.44
2022-08-01T19:32:47.005Z,44.41
2022-08-01T19:35:16.828Z,44.38
2022-08-01T19:37:47.169Z,44.97
2022-08-01T19:40:26.070Z,45.12
2022-08-01T19:42:54.094Z,45.78
2022-08-01T19:45:21.675Z,45.48
2022-08-01T19:47:56.344Z,45.94
2022-08-01T19:50:25.810Z,45.70
2022-08-01T19:52:55.111Z,46.10
2022-08-01T19:55:23.528Z,46.34
2022-08-01T19:58:10.570Z,46.55
2022-08-01T20:00:40.340Z,46.54
2022-08-01T20:03:08.156Z,46.98
2022-08-01T20:05:36.466Z,47.00
2022-08-01T20:08:03.385Z,46.96
2022-08-01T20:10:32.349Z,46.98
2022-08-01T20:12:59.022Z,47.22
2022-08-01T20:15:26.058Z,47.34
2022-08-01T20:17:52.678Z,47.26
2022-08-01T20:20:19.280Z,47.42
2022-08-01T20:22:48.801Z,47.85
2022-08-01T20:25:23.695Z,48.18
2022-08-01T20:27:55.845Z,48.55
2022-08-01T20:30:26.270Z,48.72
2022-08-01T20:32:53.838Z,49.60
2022-08-01T20:35:53.494Z,49.42
2022-08-01T20:38:17.596Z,49.61
2022-08-01T20:40:45.681Z,49.87
2022-08-01T20:43:13.858Z,49.70
2022-08-01T20:45:47.052Z,49.87
2022-08-01T20:48:15.840Z,50.12
2022-08-01T20:51:03.818Z,49.98
2022-08-01T20:53:32.627Z,50.44
2022-08-01T20:56:02.049Z,50.36
2022-08-01T20:59:06.887Z,50.58
2022-08-01T21:01:48.557Z,50.78
2022-08-01T21:04:37.232Z,50.78
2022-08-01T21:07:08.909Z,50.90
2022-08-01T21:09:39.359Z,51.46
2022-08-01T21:12:08.803Z,51.78
2022-08-01T21:14:51.161Z,52.18
2022-08-01T21:17:41.916Z,52.32
2022-08-01T21:20:12.071Z,52.32
2022-08-01T21:22:53.080Z,52.52
2022-08-01T21:25:26.326Z,52.59
2022-08-01T21:27:55.121Z,52.93
2022-08-01T21:30:25.079Z,53.12
2022-08-01T21:32:55.629Z,53.19
2022-08-01T21:35:25.006Z,53.34
2022-08-01T21:37:53.081Z,53.38
2022-08-01T21:40:24.357Z,53.63
2022-08-01T21:42:54.546Z,53.75
2022-08-01T21:45:25.891Z,53.64
2022-08-01T21:47:53.182Z,53.60
2022-08-01T21:50:20.955Z,53.69
2022-08-01T21:53:06.523Z,54.10
2022-08-01T21:56:15.142Z,54.04
2022-08-01T21:58:52.344Z,54.26
2022-08-01T22:01:27.237Z,54.42
2022-08-01T22:03:59.139Z,55.10
2022-08-01T22:06:28.694Z,55.09
2022-08-01T22:09:03.261Z,55.07
2022-08-01T22:11:31.784Z,55.06
2022-08-01T22:14:01.924Z,54.79
2022-08-01T22:16:31.829Z,55.22
2022-08-01T22:19:00.593Z,55.46
2022-08-01T22:21:27.701Z,55.20
2022-08-01T22:23:54.621Z,55.32
2022-08-01T22:26:29.157Z,55.54
2022-08-01T22:28:59.712Z,55.76
2022-08-01T22:31:27.178Z,55.96
2022-08-01T22:33:54.812Z,56.35
2022-08-01T22:36:25.559Z,56.72
2022-08-01T22:38:52.143Z,56.89
2022-08-01T22:41:24.610Z,57.51
2022-08-01T22:44:08.477Z,57.96
2022-08-01T22:46:55.422Z,58.41
2022-08-01T22:49:37.603Z,58.57
2022-08-01T22:52:20.758Z,58.48
2022-08-01T22:55:16.993Z,59.10
2022-08-01T22:57:59.317Z,59.11
2022-08-01T23:00:31.523Z,59.73
2022-08-01T23:03:14.561Z,60.09
2022-08-01T23:06:01.907Z,60.02
2022-08-01T23:08:29.956Z,60.23
2022-08-01T23:10:56.564Z,60.31
2022-08-01T23:13:23.943Z,60.53
2022-08-01T23:15:52.214Z,60.66
2022-08-01T23:18:21.122Z,61.36
2022-08-01T23:20:51.735Z,62.11
2022-08-01T23:23:30.620Z,61.80
2022-08-01T23:25:59.298Z,61.72
2022-08-01T23:28:27.435Z,62.19
2022-08-01T23:30:54.505Z,62.63
2022-08-01T23:33:24.238Z,62.80
2022-08-01T23:35:53.888Z,62.88
2022-08-01T23:38:24.148Z,63.12
2022-08-01T23:40:53.900Z,63.35
2022-08-01T23:43:23.114Z,63.61
2022-08-01T23:46:03.818Z,63.36
2022-08-01T23:48:34.909Z,63.76
2022-08-01T23:51:02.370Z,64.52
2022-08-01T23:53:31.027Z,65.08
2022-08-01T23:55:58.820Z,65.81
2022-08-01T23:58:25.521Z,66.35
